Airfield :
LOGIN :

Register | Disclaimer

   EN    FR    IT 

 










Legend :    VFR   Marginal VFR   IFR   Intensive IFR   Very Intensive IFR
Visi :
Ceiling :
>= 8 km
>= 3000ft
5 to 8 km
1000 to 3000 ft
1500m to 5 km
500 to 1000 ft
800 to 1500m
200 to 500 ft
< 800m
< 200 ft
Symbols :   Thunderstorms  Fog  Heavy snow  Heavy precipitations  Wind > 20 kt
SIGMETs :     Misc.  Thunderstorms  Icing  Turbulence  Mountain Waves  Volcanic Ashes






- Airport Elevation : 755 ft
- IATA code : DRS


EDDC - Dresden Klotzsche

CURRENT METAR :
  • 091950Z AUTO 06008KT 9999 BKN008 BKN013 OVC019 01/M01 Q1005 NOSIG

EXPIRED METARs :
  • 091920Z AUTO 06009KT 9999 BKN010 BKN027 BKN046 00/M01 Q1005 NOSIG
  • 090450Z AUTO VRB01KT 6000 BKN019 01/01 Q1006 TEMPO 4500 BR
  • 091850Z AUTO 06009KT 9999 BKN009 BKN025 BKN045 00/M01 Q1005
  • 091820Z AUTO 06009KT 9999 BKN008 BKN043 00/M01 Q1005
  • 091750Z AUTO 05007KT 9999 BKN008 BKN012 BKN038 01/M00 Q1004 NOSIG
  • 091720Z AUTO 06008KT 9999 BKN008 BKN013 OVC040 01/00 Q1004
  • 091650Z AUTO 04007KT 9000 SCT009 BKN043 01/M00 Q1005 TEMPO BKN008

TAF TAF EDDC
Valid from the 09 at 12:00 until the 10 at 12:00 UTC


091100Z 0912/1012 06005KT 9999 SCT015
TEMPO 0912/0917 BKN012
BECMG 0917/0920 3000 BR BKN008
TEMPO 1001/1012 1200 -SG BKN003



MET'MAP, your aeronautical weather chart ! - Copyright ORBIFLY December 2007 - Disclaimer

ORBIFLY MET'MAP TEAM :

Programming & Development : Alexandra Zaïnal
Original concept : Baudouin d'Aumeries
Technical & hardware support : Manuel Goepfert
Assistance : Marc-Olivier Méhu




SOURCES & CREDITS :

   NOAA